Tunnerville, South Dakota
Current Conditions -  °F | °C
As of 3:53 AM on Sunday 23 Nov 2014 (Local Time) from KCNB Reporting Station
Overcast Overcast  
Wind Chill: 39°   Ceiling: 9000
Heat Index: 39°   Visibility: 10mi
Dew Point: 34°   Wind: 0mph
Humidity: 81%   Direction: NA
Pressure: 29.4"   Gusts: NA
Location:  44.7895°N, 96.7201°W
Report Text: KCNB 230953Z AUTO 00000KT 10SM OVC090 04/01 A2940 RMK AO2 T00400010
Loading
Personal Weather Stations






























Interactive Weather Map New forecast layout! Learn more

10-Day Weather Forecast

Advertisements
Track Severe Weather on mobile